Friday, May 6, 2016, 12:46 PM EDT
Back to Local

KLEB, Lebanon Municipal Airport

Location: Lebanon, NH, United States Lat: 43.633
Local Time: 12:46 PM EDT (16:46 GMT) Lon: -72.3
Time Zone: US/Eastern Elev: 597 ft

Show me the last for .
Show Coded

Time T Td Feel RH Dir Speed Gust Alt SLP Vis Weather Sky Remarks
2016-05-06 11:53 64 43 - 46 330° 7 - 29.82 29.81 10 CLR None
2016-05-06 10:53 60 43 - 53 50° 8 - 29.82 29.81 10 CLR None
2016-05-06 09:53 57 41 - 54 Variable 3 16 29.81 29.80 10 CLR None
2016-05-06 08:53 55 40 - 56 30° 6 - 29.80 29.80 10 CLR None
2016-05-06 07:53 52 40 - 63 350° 6 - 29.79 29.78 10 CLR 6-hr Min Temp (8am): 39.9°F
6-hr Max Temp (8am): 52.0°F
2016-05-06 06:53 49 40 47 70 320° 6 - 29.77 29.76 10 CLR None
2016-05-06 05:53 42 38 - 85 - Calm - 29.75 29.75 10 CLR None
2016-05-06 04:53 42 39 - 88 - Calm - 29.72 29.72 10 CLR None
2016-05-06 03:53 46 41 - 82 - Calm - 29.72 29.71 10 CLR None
2016-05-06 02:53 49 40 47 70 360° 6 - 29.69 29.69 10 CLR None
2016-05-06 01:53 50 40 49 68 360° 3 - 29.70 29.70 10 CLR 6-hr Min Temp (2am): 50.0°F
6-hr Max Temp (2am): 55.0°F
2016-05-06 00:53 51 40 - 65 40° 3 - 29.72 29.71 10 OVC037 24-hr Min Temp (1am): 44.1°F
24-hr Max Temp (1am): 57.9°F
2016-05-05 23:53 51 41 - 68 40° 6 - 29.72 29.72 10 OVC037 None
2016-05-05 22:53 52 41 - 66 20° 6 - 29.73 29.72 10 OVC037 None
2016-05-05 21:53 53 42 - 66 40° 8 - 29.73 29.72 10 OVC038 None
2016-05-05 20:53 54 43 - 66 20° 9 - 29.73 29.72 10 OVC036 None
2016-05-05 19:53 54 45 - 71 70° 3 - 29.72 29.71 10 OVC034 6-hr Min Temp (8pm): 54.0°F
6-hr Max Temp (8pm): 57.9°F
2016-05-05 18:53 56 45 - 66 70° 3 - 29.72 29.72 10 OVC033 None
2016-05-05 17:53 58 45 - 61 20° 6 - 29.72 29.72 10 OVC035 None
2016-05-05 16:53 58 44 - 59 20° 7 - 29.73 29.72 10 OVC034 None
2016-05-05 15:53 57 44 - 61 40° 7 - 29.74 29.73 10 OVC032 None
2016-05-05 15:06 57 44 - 61 40° 5 - 29.75 - 10 OVC031 None
2016-05-05 14:53 56 44 - 64 10° 8 - 29.75 29.75 10 OVC029 None
2016-05-05 13:53 56 44 - 64 40° 12 - 29.77 29.77 10 OVC028 6-hr Min Temp (2pm): 46.0°F
6-hr Max Temp (2pm): 57.0°F
2016-05-05 13:43 55 44 - 66 40° 9 - 29.77 - 10 OVC028 None
2016-05-05 13:20 56 44 - 64 10° 12 - 29.77 - 10 SCT023 OVC033 None
2016-05-05 12:53 56 45 - 66 340° 7 - 29.78 29.77 10 FEW017 BKN024 OVC045 None

Support USWX by starting your Amazon purchase here.